sensor_id;sensor_type;location;lat;lon;timestamp;temperature;humidity
67820;DHT22;54618;52.018;5.576;2023-04-15T00:00:32;18.70;46.90
67820;DHT22;54618;52.018;5.576;2023-04-15T00:02:58;18.70;46.90
67820;DHT22;54618;52.018;5.576;2023-04-15T00:05:24;18.70;46.90
67820;DHT22;54618;52.018;5.576;2023-04-15T00:07:50;18.70;47.00
67820;DHT22;54618;52.018;5.576;2023-04-15T00:10:15;18.70;46.90
67820;DHT22;54618;52.018;5.576;2023-04-15T00:12:41;18.70;46.90
67820;DHT22;54618;52.018;5.576;2023-04-15T00:15:07;18.70;46.90
67820;DHT22;54618;52.018;5.576;2023-04-15T00:17:34;18.70;47.00
67820;DHT22;54618;52.018;5.576;2023-04-15T00:20:00;18.60;46.90
67820;DHT22;54618;52.018;5.576;2023-04-15T00:22:26;18.60;46.90
67820;DHT22;54618;52.018;5.576;2023-04-15T00:24:52;18.60;46.80
67820;DHT22;54618;52.018;5.576;2023-04-15T00:27:18;18.60;46.90
67820;DHT22;54618;52.018;5.576;2023-04-15T00:29:44;18.60;46.90
67820;DHT22;54618;52.018;5.576;2023-04-15T00:32:09;18.60;46.90
67820;DHT22;54618;52.018;5.576;2023-04-15T00:34:35;18.60;46.90
67820;DHT22;54618;52.018;5.576;2023-04-15T00:37:01;18.60;46.90
67820;DHT22;54618;52.018;5.576;2023-04-15T00:39:27;18.60;46.90
67820;DHT22;54618;52.018;5.576;2023-04-15T00:41:52;18.60;46.90
67820;DHT22;54618;52.018;5.576;2023-04-15T00:44:18;18.60;46.90
67820;DHT22;54618;52.018;5.576;2023-04-15T00:46:44;18.60;46.90
67820;DHT22;54618;52.018;5.576;2023-04-15T00:49:11;18.50;46.80
67820;DHT22;54618;52.018;5.576;2023-04-15T00:51:37;18.50;46.80
67820;DHT22;54618;52.018;5.576;2023-04-15T00:54:03;18.50;46.90
67820;DHT22;54618;52.018;5.576;2023-04-15T00:56:29;18.50;46.90
67820;DHT22;54618;52.018;5.576;2023-04-15T00:58:57;18.50;46.90
67820;DHT22;54618;52.018;5.576;2023-04-15T01:01:24;18.50;46.90
67820;DHT22;54618;52.018;5.576;2023-04-15T01:03:50;18.50;46.90
67820;DHT22;54618;52.018;5.576;2023-04-15T01:06:16;18.50;46.90
67820;DHT22;54618;52.018;5.576;2023-04-15T01:08:43;18.50;46.90
67820;DHT22;54618;52.018;5.576;2023-04-15T01:11:10;18.50;46.90
67820;DHT22;54618;52.018;5.576;2023-04-15T01:13:36;18.50;46.90
67820;DHT22;54618;52.018;5.576;2023-04-15T01:16:02;18.50;46.90
67820;DHT22;54618;52.018;5.576;2023-04-15T01:18:29;18.50;46.90
67820;DHT22;54618;52.018;5.576;2023-04-15T01:20:54;18.50;46.90
67820;DHT22;54618;52.018;5.576;2023-04-15T01:23:20;18.50;46.90
67820;DHT22;54618;52.018;5.576;2023-04-15T01:25:48;18.40;46.80
67820;DHT22;54618;52.018;5.576;2023-04-15T01:28:14;18.40;46.80
67820;DHT22;54618;52.018;5.576;2023-04-15T01:30:40;18.40;46.90
67820;DHT22;54618;52.018;5.576;2023-04-15T01:33:06;18.50;46.80
67820;DHT22;54618;52.018;5.576;2023-04-15T01:35:32;18.40;46.80
67820;DHT22;54618;52.018;5.576;2023-04-15T01:38:07;18.40;46.80
67820;DHT22;54618;52.018;5.576;2023-04-15T01:40:33;18.50;46.80
67820;DHT22;54618;52.018;5.576;2023-04-15T01:43:00;18.50;46.80
67820;DHT22;54618;52.018;5.576;2023-04-15T01:45:25;18.50;46.80
67820;DHT22;54618;52.018;5.576;2023-04-15T01:47:51;18.50;46.80
67820;DHT22;54618;52.018;5.576;2023-04-15T01:50:17;18.50;46.90
67820;DHT22;54618;52.018;5.576;2023-04-15T01:52:43;18.50;47.00
67820;DHT22;54618;52.018;5.576;2023-04-15T01:55:10;18.50;47.00
67820;DHT22;54618;52.018;5.576;2023-04-15T01:57:35;18.50;47.10
67820;DHT22;54618;52.018;5.576;2023-04-15T02:00:01;18.50;47.10
67820;DHT22;54618;52.018;5.576;2023-04-15T02:02:27;18.50;47.10
67820;DHT22;54618;52.018;5.576;2023-04-15T02:04:53;18.40;47.10
67820;DHT22;54618;52.018;5.576;2023-04-15T02:07:19;18.40;47.10
67820;DHT22;54618;52.018;5.576;2023-04-15T02:09:44;18.40;47.20
67820;DHT22;54618;52.018;5.576;2023-04-15T02:12:10;18.40;47.30
67820;DHT22;54618;52.018;5.576;2023-04-15T02:14:36;18.40;47.30
67820;DHT22;54618;52.018;5.576;2023-04-15T02:17:02;18.40;47.30
67820;DHT22;54618;52.018;5.576;2023-04-15T02:19:32;18.30;47.20
67820;DHT22;54618;52.018;5.576;2023-04-15T02:21:58;18.30;47.30
67820;DHT22;54618;52.018;5.576;2023-04-15T02:24:25;18.30;47.30
67820;DHT22;54618;52.018;5.576;2023-04-15T02:26:50;18.30;47.30
67820;DHT22;54618;52.018;5.576;2023-04-15T02:29:16;18.30;47.30
67820;DHT22;54618;52.018;5.576;2023-04-15T02:31:41;18.30;47.30
67820;DHT22;54618;52.018;5.576;2023-04-15T02:34:08;18.30;47.30
67820;DHT22;54618;52.018;5.576;2023-04-15T02:36:33;18.30;47.30
67820;DHT22;54618;52.018;5.576;2023-04-15T02:38:59;18.30;47.30
67820;DHT22;54618;52.018;5.576;2023-04-15T02:41:25;18.20;47.30
67820;DHT22;54618;52.018;5.576;2023-04-15T02:43:52;18.30;47.40
67820;DHT22;54618;52.018;5.576;2023-04-15T02:46:18;18.20;47.30
67820;DHT22;54618;52.018;5.576;2023-04-15T02:48:43;18.30;47.30
67820;DHT22;54618;52.018;5.576;2023-04-15T02:51:14;18.20;47.30
67820;DHT22;54618;52.018;5.576;2023-04-15T02:53:40;18.30;47.30
67820;DHT22;54618;52.018;5.576;2023-04-15T02:56:06;18.20;47.30
67820;DHT22;54618;52.018;5.576;2023-04-15T02:58:32;18.20;47.30
67820;DHT22;54618;52.018;5.576;2023-04-15T03:00:59;18.20;47.30
67820;DHT22;54618;52.018;5.576;2023-04-15T03:03:24;18.20;47.30
67820;DHT22;54618;52.018;5.576;2023-04-15T03:05:52;18.20;47.30
67820;DHT22;54618;52.018;5.576;2023-04-15T03:08:17;18.20;47.30
67820;DHT22;54618;52.018;5.576;2023-04-15T03:10:43;18.20;47.30
67820;DHT22;54618;52.018;5.576;2023-04-15T03:13:09;18.20;47.30
67820;DHT22;54618;52.018;5.576;2023-04-15T03:15:35;18.10;47.30
67820;DHT22;54618;52.018;5.576;2023-04-15T03:18:01;18.10;47.30
67820;DHT22;54618;52.018;5.576;2023-04-15T03:20:26;18.10;47.30
67820;DHT22;54618;52.018;5.576;2023-04-15T03:22:52;18.10;47.30
67820;DHT22;54618;52.018;5.576;2023-04-15T03:25:17;18.10;47.30
67820;DHT22;54618;52.018;5.576;2023-04-15T03:27:43;18.10;47.30
67820;DHT22;54618;52.018;5.576;2023-04-15T03:30:09;18.10;47.30
67820;DHT22;54618;52.018;5.576;2023-04-15T03:32:35;18.10;47.30
67820;DHT22;54618;52.018;5.576;2023-04-15T03:35:00;18.10;47.30
67820;DHT22;54618;52.018;5.576;2023-04-15T03:37:26;18.10;47.30
67820;DHT22;54618;52.018;5.576;2023-04-15T03:39:51;18.10;47.30
67820;DHT22;54618;52.018;5.576;2023-04-15T03:42:17;18.10;47.30
67820;DHT22;54618;52.018;5.576;2023-04-15T03:44:42;18.00;47.20
67820;DHT22;54618;52.018;5.576;2023-04-15T03:47:08;18.10;47.30
67820;DHT22;54618;52.018;5.576;2023-04-15T03:49:35;18.10;47.30
67820;DHT22;54618;52.018;5.576;2023-04-15T03:52:01;18.00;47.30
67820;DHT22;54618;52.018;5.576;2023-04-15T03:54:27;18.00;47.20
67820;DHT22;54618;52.018;5.576;2023-04-15T03:56:52;18.00;47.20
67820;DHT22;54618;52.018;5.576;2023-04-15T03:59:18;18.00;47.20
67820;DHT22;54618;52.018;5.576;2023-04-15T04:01:44;18.00;47.30
67820;DHT22;54618;52.018;5.576;2023-04-15T04:04:10;18.00;47.20
67820;DHT22;54618;52.018;5.576;2023-04-15T04:06:35;18.00;47.20
67820;DHT22;54618;52.018;5.576;2023-04-15T04:09:01;18.00;47.30
67820;DHT22;54618;52.018;5.576;2023-04-15T04:11:26;18.00;47.30
67820;DHT22;54618;52.018;5.576;2023-04-15T04:13:52;18.00;47.30
67820;DHT22;54618;52.018;5.576;2023-04-15T04:16:18;18.00;47.30
67820;DHT22;54618;52.018;5.576;2023-04-15T04:18:44;18.00;47.30
67820;DHT22;54618;52.018;5.576;2023-04-15T04:21:10;18.00;47.30
67820;DHT22;54618;52.018;5.576;2023-04-15T04:23:36;18.00;47.30
67820;DHT22;54618;52.018;5.576;2023-04-15T04:26:01;17.90;47.30
67820;DHT22;54618;52.018;5.576;2023-04-15T04:28:27;17.90;47.20
67820;DHT22;54618;52.018;5.576;2023-04-15T04:30:52;17.90;47.20
67820;DHT22;54618;52.018;5.576;2023-04-15T04:33:18;17.90;47.30
67820;DHT22;54618;52.018;5.576;2023-04-15T04:35:43;17.90;47.20
67820;DHT22;54618;52.018;5.576;2023-04-15T04:38:09;17.90;47.20
67820;DHT22;54618;52.018;5.576;2023-04-15T04:40:35;17.90;47.30
67820;DHT22;54618;52.018;5.576;2023-04-15T04:43:01;17.90;47.20
67820;DHT22;54618;52.018;5.576;2023-04-15T04:45:27;17.90;47.20
67820;DHT22;54618;52.018;5.576;2023-04-15T04:47:52;17.90;47.20
67820;DHT22;54618;52.018;5.576;2023-04-15T04:50:18;17.90;47.30
67820;DHT22;54618;52.018;5.576;2023-04-15T04:52:43;17.80;47.20
67820;DHT22;54618;52.018;5.576;2023-04-15T04:55:09;17.80;47.20
67820;DHT22;54618;52.018;5.576;2023-04-15T04:57:35;17.80;47.20
67820;DHT22;54618;52.018;5.576;2023-04-15T05:00:01;17.90;47.30
67820;DHT22;54618;52.018;5.576;2023-04-15T05:02:29;17.80;47.20
67820;DHT22;54618;52.018;5.576;2023-04-15T05:04:55;17.80;47.20
67820;DHT22;54618;52.018;5.576;2023-04-15T05:07:21;17.80;47.20
67820;DHT22;54618;52.018;5.576;2023-04-15T05:09:46;17.80;47.20
67820;DHT22;54618;52.018;5.576;2023-04-15T05:12:12;17.80;47.30
67820;DHT22;54618;52.018;5.576;2023-04-15T05:14:40;17.80;47.20
67820;DHT22;54618;52.018;5.576;2023-04-15T05:17:07;17.80;47.20
67820;DHT22;54618;52.018;5.576;2023-04-15T05:19:32;17.80;47.20
67820;DHT22;54618;52.018;5.576;2023-04-15T05:21:58;17.80;47.20
67820;DHT22;54618;52.018;5.576;2023-04-15T05:24:24;17.80;47.20
67820;DHT22;54618;52.018;5.576;2023-04-15T05:26:49;17.80;47.20
67820;DHT22;54618;52.018;5.576;2023-04-15T05:29:15;17.80;47.20
67820;DHT22;54618;52.018;5.576;2023-04-15T05:31:41;17.80;47.20
67820;DHT22;54618;52.018;5.576;2023-04-15T05:34:07;17.80;47.30
67820;DHT22;54618;52.018;5.576;2023-04-15T05:36:32;17.80;47.20
67820;DHT22;54618;52.018;5.576;2023-04-15T05:38:58;18.00;47.20
67820;DHT22;54618;52.018;5.576;2023-04-15T05:41:23;18.40;46.70
67820;DHT22;54618;52.018;5.576;2023-04-15T05:43:49;19.00;46.10
67820;DHT22;54618;52.018;5.576;2023-04-15T05:46:15;19.60;45.40
67820;DHT22;54618;52.018;5.576;2023-04-15T05:48:40;19.90;44.90
67820;DHT22;54618;52.018;5.576;2023-04-15T05:51:06;20.20;44.60
67820;DHT22;54618;52.018;5.576;2023-04-15T05:53:31;20.40;44.40
67820;DHT22;54618;52.018;5.576;2023-04-15T05:55:57;20.60;44.30
67820;DHT22;54618;52.018;5.576;2023-04-15T05:58:23;20.70;44.20
67820;DHT22;54618;52.018;5.576;2023-04-15T06:00:49;20.80;44.20
67820;DHT22;54618;52.018;5.576;2023-04-15T06:03:15;20.90;44.20
67820;DHT22;54618;52.018;5.576;2023-04-15T06:05:41;20.90;44.20
67820;DHT22;54618;52.018;5.576;2023-04-15T06:08:07;21.00;44.30
67820;DHT22;54618;52.018;5.576;2023-04-15T06:10:34;21.00;44.90
67820;DHT22;54618;52.018;5.576;2023-04-15T06:13:04;21.10;44.30
67820;DHT22;54618;52.018;5.576;2023-04-15T06:15:29;21.20;44.30
67820;DHT22;54618;52.018;5.576;2023-04-15T06:17:55;21.20;44.40
67820;DHT22;54618;52.018;5.576;2023-04-15T06:20:21;21.20;44.30
67820;DHT22;54618;52.018;5.576;2023-04-15T06:22:46;21.30;44.40
67820;DHT22;54618;52.018;5.576;2023-04-15T06:25:12;21.30;44.40
67820;DHT22;54618;52.018;5.576;2023-04-15T06:27:38;21.30;44.40
67820;DHT22;54618;52.018;5.576;2023-04-15T06:30:04;21.40;44.50
67820;DHT22;54618;52.018;5.576;2023-04-15T06:32:31;21.30;44.40
67820;DHT22;54618;52.018;5.576;2023-04-15T06:34:57;21.30;44.40
67820;DHT22;54618;52.018;5.576;2023-04-15T06:37:22;21.40;44.50
67820;DHT22;54618;52.018;5.576;2023-04-15T06:39:48;21.40;44.60
67820;DHT22;54618;52.018;5.576;2023-04-15T06:42:13;21.40;44.50
67820;DHT22;54618;52.018;5.576;2023-04-15T06:44:39;21.40;44.50
67820;DHT22;54618;52.018;5.576;2023-04-15T06:47:05;21.40;44.40
67820;DHT22;54618;52.018;5.576;2023-04-15T06:49:31;21.40;44.40
67820;DHT22;54618;52.018;5.576;2023-04-15T06:51:58;21.50;44.40
67820;DHT22;54618;52.018;5.576;2023-04-15T06:54:25;21.50;44.40
67820;DHT22;54618;52.018;5.576;2023-04-15T06:56:51;21.50;44.30
67820;DHT22;54618;52.018;5.576;2023-04-15T06:59:16;21.50;44.30
67820;DHT22;54618;52.018;5.576;2023-04-15T07:01:42;21.50;44.30
67820;DHT22;54618;52.018;5.576;2023-04-15T07:04:07;21.60;44.40
67820;DHT22;54618;52.018;5.576;2023-04-15T07:06:33;21.60;44.30
67820;DHT22;54618;52.018;5.576;2023-04-15T07:09:00;21.60;44.30
67820;DHT22;54618;52.018;5.576;2023-04-15T07:11:26;21.60;44.30
67820;DHT22;54618;52.018;5.576;2023-04-15T07:13:51;21.60;44.30
67820;DHT22;54618;52.018;5.576;2023-04-15T07:16:17;21.70;44.30
67820;DHT22;54618;52.018;5.576;2023-04-15T07:18:42;21.70;44.20
67820;DHT22;54618;52.018;5.576;2023-04-15T07:21:08;21.70;44.20
67820;DHT22;54618;52.018;5.576;2023-04-15T07:23:33;21.80;44.20
67820;DHT22;54618;52.018;5.576;2023-04-15T07:25:59;21.80;44.10
67820;DHT22;54618;52.018;5.576;2023-04-15T07:28:25;21.80;44.10
67820;DHT22;54618;52.018;5.576;2023-04-15T07:30:51;21.90;44.10
67820;DHT22;54618;52.018;5.576;2023-04-15T07:33:17;21.90;44.10
67820;DHT22;54618;52.018;5.576;2023-04-15T07:35:42;21.90;44.10
67820;DHT22;54618;52.018;5.576;2023-04-15T07:38:08;21.90;44.10
67820;DHT22;54618;52.018;5.576;2023-04-15T07:40:33;21.80;44.10
67820;DHT22;54618;52.018;5.576;2023-04-15T07:42:59;21.80;44.10
67820;DHT22;54618;52.018;5.576;2023-04-15T07:45:24;21.80;44.20
67820;DHT22;54618;52.018;5.576;2023-04-15T07:47:50;21.90;44.40
67820;DHT22;54618;52.018;5.576;2023-04-15T07:50:16;21.90;44.60
67820;DHT22;54618;52.018;5.576;2023-04-15T07:52:42;21.80;44.50
67820;DHT22;54618;52.018;5.576;2023-04-15T07:55:08;21.80;44.70
67820;DHT22;54618;52.018;5.576;2023-04-15T07:57:34;21.80;44.80
67820;DHT22;54618;52.018;5.576;2023-04-15T08:00:01;21.80;45.40
67820;DHT22;54618;52.018;5.576;2023-04-15T08:02:28;21.80;44.90
67820;DHT22;54618;52.018;5.576;2023-04-15T08:04:53;21.70;44.90
67820;DHT22;54618;52.018;5.576;2023-04-15T08:07:19;21.70;44.90
67820;DHT22;54618;52.018;5.576;2023-04-15T08:09:45;21.80;44.90
67820;DHT22;54618;52.018;5.576;2023-04-15T08:12:11;21.80;44.90
67820;DHT22;54618;52.018;5.576;2023-04-15T08:14:38;21.90;44.80
67820;DHT22;54618;52.018;5.576;2023-04-15T08:17:03;21.90;44.70
67820;DHT22;54618;52.018;5.576;2023-04-15T08:19:30;21.90;44.80
67820;DHT22;54618;52.018;5.576;2023-04-15T08:21:55;21.80;44.80
67820;DHT22;54618;52.018;5.576;2023-04-15T08:24:21;21.70;44.90
67820;DHT22;54618;52.018;5.576;2023-04-15T08:26:47;21.50;45.10
67820;DHT22;54618;52.018;5.576;2023-04-15T08:29:12;21.40;45.20
67820;DHT22;54618;52.018;5.576;2023-04-15T08:31:38;21.30;45.30
67820;DHT22;54618;52.018;5.576;2023-04-15T08:34:03;21.20;45.40
67820;DHT22;54618;52.018;5.576;2023-04-15T08:36:29;21.10;45.50
67820;DHT22;54618;52.018;5.576;2023-04-15T08:38:56;21.10;45.70
67820;DHT22;54618;52.018;5.576;2023-04-15T08:41:23;21.10;45.70
67820;DHT22;54618;52.018;5.576;2023-04-15T08:44:03;21.30;45.60
67820;DHT22;54618;52.018;5.576;2023-04-15T08:46:30;21.60;45.40
67820;DHT22;54618;52.018;5.576;2023-04-15T08:48:57;21.90;44.90
67820;DHT22;54618;52.018;5.576;2023-04-15T08:51:23;22.20;44.70
67820;DHT22;54618;52.018;5.576;2023-04-15T08:53:49;22.40;44.40
67820;DHT22;54618;52.018;5.576;2023-04-15T08:56:15;22.60;44.30
67820;DHT22;54618;52.018;5.576;2023-04-15T08:58:43;22.70;44.10
67820;DHT22;54618;52.018;5.576;2023-04-15T09:01:11;22.90;44.10
67820;DHT22;54618;52.018;5.576;2023-04-15T09:03:37;22.90;44.00
67820;DHT22;54618;52.018;5.576;2023-04-15T09:06:04;23.00;44.00
67820;DHT22;54618;52.018;5.576;2023-04-15T09:08:31;23.10;44.00
67820;DHT22;54618;52.018;5.576;2023-04-15T09:10:56;23.20;43.90
67820;DHT22;54618;52.018;5.576;2023-04-15T09:13:22;23.30;43.90
67820;DHT22;54618;52.018;5.576;2023-04-15T09:15:47;23.30;44.00
67820;DHT22;54618;52.018;5.576;2023-04-15T09:18:29;23.30;44.00
67820;DHT22;54618;52.018;5.576;2023-04-15T09:21:12;23.20;43.90
67820;DHT22;54618;52.018;5.576;2023-04-15T09:23:56;23.20;44.20
67820;DHT22;54618;52.018;5.576;2023-04-15T09:26:36;23.00;44.30
67820;DHT22;54618;52.018;5.576;2023-04-15T09:29:06;23.00;44.40
67820;DHT22;54618;52.018;5.576;2023-04-15T09:31:32;22.90;44.60
67820;DHT22;54618;52.018;5.576;2023-04-15T09:33:58;22.80;44.60
67820;DHT22;54618;52.018;5.576;2023-04-15T09:36:24;22.70;44.80
67820;DHT22;54618;52.018;5.576;2023-04-15T09:38:57;22.70;44.80
67820;DHT22;54618;52.018;5.576;2023-04-15T09:41:23;22.60;44.80
67820;DHT22;54618;52.018;5.576;2023-04-15T09:43:49;22.50;44.90
67820;DHT22;54618;52.018;5.576;2023-04-15T09:46:15;22.40;45.00
67820;DHT22;54618;52.018;5.576;2023-04-15T09:48:41;22.50;45.00
67820;DHT22;54618;52.018;5.576;2023-04-15T09:51:06;22.50;45.00
67820;DHT22;54618;52.018;5.576;2023-04-15T09:53:34;22.50;44.90
67820;DHT22;54618;52.018;5.576;2023-04-15T09:55:59;22.60;44.80
67820;DHT22;54618;52.018;5.576;2023-04-15T09:58:32;22.60;44.80
67820;DHT22;54618;52.018;5.576;2023-04-15T10:00:58;22.70;44.70
67820;DHT22;54618;52.018;5.576;2023-04-15T10:03:26;22.70;44.40
67820;DHT22;54618;52.018;5.576;2023-04-15T10:05:55;22.80;44.60
67820;DHT22;54618;52.018;5.576;2023-04-15T10:08:22;22.80;44.60
67820;DHT22;54618;52.018;5.576;2023-04-15T10:10:49;22.80;44.50
67820;DHT22;54618;52.018;5.576;2023-04-15T10:13:18;22.80;44.50
67820;DHT22;54618;52.018;5.576;2023-04-15T10:15:55;22.80;44.50
67820;DHT22;54618;52.018;5.576;2023-04-15T10:18:24;22.90;44.40
67820;DHT22;54618;52.018;5.576;2023-04-15T10:20:51;22.90;44.30
67820;DHT22;54618;52.018;5.576;2023-04-15T10:23:17;22.90;44.30
67820;DHT22;54618;52.018;5.576;2023-04-15T10:25:43;23.00;44.30
67820;DHT22;54618;52.018;5.576;2023-04-15T10:28:11;23.00;44.30
67820;DHT22;54618;52.018;5.576;2023-04-15T10:30:37;23.00;44.30
67820;DHT22;54618;52.018;5.576;2023-04-15T10:33:03;23.00;44.30
67820;DHT22;54618;52.018;5.576;2023-04-15T10:35:30;23.00;44.30
67820;DHT22;54618;52.018;5.576;2023-04-15T10:37:57;23.00;44.20
67820;DHT22;54618;52.018;5.576;2023-04-15T10:40:30;22.90;44.30
67820;DHT22;54618;52.018;5.576;2023-04-15T10:43:00;22.90;44.40
67820;DHT22;54618;52.018;5.576;2023-04-15T10:45:27;22.90;44.40
67820;DHT22;54618;52.018;5.576;2023-04-15T10:47:58;22.90;44.30
67820;DHT22;54618;52.018;5.576;2023-04-15T10:50:26;23.00;44.40
67820;DHT22;54618;52.018;5.576;2023-04-15T10:52:52;22.90;44.20
67820;DHT22;54618;52.018;5.576;2023-04-15T10:55:31;22.90;43.90
67820;DHT22;54618;52.018;5.576;2023-04-15T10:57:58;22.70;43.60
67820;DHT22;54618;52.018;5.576;2023-04-15T11:00:30;22.70;44.00
67820;DHT22;54618;52.018;5.576;2023-04-15T11:02:57;22.60;44.00
67820;DHT22;54618;52.018;5.576;2023-04-15T11:05:48;22.60;43.80
67820;DHT22;54618;52.018;5.576;2023-04-15T11:08:14;22.70;43.90
67820;DHT22;54618;52.018;5.576;2023-04-15T11:15:40;22.80;44.00
67820;DHT22;54618;52.018;5.576;2023-04-15T11:18:09;22.80;44.00
67820;DHT22;54618;52.018;5.576;2023-04-15T11:20:37;22.90;44.10
67820;DHT22;54618;52.018;5.576;2023-04-15T11:23:03;22.90;44.20
67820;DHT22;54618;52.018;5.576;2023-04-15T11:25:33;22.90;44.20
67820;DHT22;54618;52.018;5.576;2023-04-15T11:28:00;22.90;44.30
67820;DHT22;54618;52.018;5.576;2023-04-15T11:30:28;22.80;44.30
67820;DHT22;54618;52.018;5.576;2023-04-15T11:32:57;22.80;44.40
67820;DHT22;54618;52.018;5.576;2023-04-15T11:35:24;22.80;44.40
67820;DHT22;54618;52.018;5.576;2023-04-15T11:37:49;22.80;44.50
67820;DHT22;54618;52.018;5.576;2023-04-15T11:40:16;22.80;44.60
67820;DHT22;54618;52.018;5.576;2023-04-15T11:42:43;22.80;44.60
67820;DHT22;54618;52.018;5.576;2023-04-15T11:45:13;22.70;44.60
67820;DHT22;54618;52.018;5.576;2023-04-15T11:47:40;22.70;44.60
67820;DHT22;54618;52.018;5.576;2023-04-15T11:50:20;22.70;44.50
67820;DHT22;54618;52.018;5.576;2023-04-15T11:53:00;22.60;44.60
67820;DHT22;54618;52.018;5.576;2023-04-15T11:55:27;22.50;44.70
67820;DHT22;54618;52.018;5.576;2023-04-15T12:00:32;22.50;44.70
67820;DHT22;54618;52.018;5.576;2023-04-15T12:03:14;22.40;44.80
67820;DHT22;54618;52.018;5.576;2023-04-15T12:11:25;22.40;45.00
67820;DHT22;54618;52.018;5.576;2023-04-15T12:14:02;22.40;44.80
67820;DHT22;54618;52.018;5.576;2023-04-15T12:16:28;22.40;44.80
67820;DHT22;54618;52.018;5.576;2023-04-15T12:18:56;22.30;44.80
67820;DHT22;54618;52.018;5.576;2023-04-15T12:21:24;22.30;44.90
67820;DHT22;54618;52.018;5.576;2023-04-15T12:23:51;22.30;44.90
67820;DHT22;54618;52.018;5.576;2023-04-15T12:26:24;22.40;44.80
67820;DHT22;54618;52.018;5.576;2023-04-15T12:28:59;22.30;44.70
67820;DHT22;54618;52.018;5.576;2023-04-15T12:31:25;22.30;44.80
67820;DHT22;54618;52.018;5.576;2023-04-15T12:33:53;22.30;44.90
67820;DHT22;54618;52.018;5.576;2023-04-15T12:36:19;22.30;44.80
67820;DHT22;54618;52.018;5.576;2023-04-15T12:38:44;22.30;44.70
67820;DHT22;54618;52.018;5.576;2023-04-15T12:41:10;22.30;44.80
67820;DHT22;54618;52.018;5.576;2023-04-15T12:43:36;22.20;44.80
67820;DHT22;54618;52.018;5.576;2023-04-15T12:46:01;22.20;44.80
67820;DHT22;54618;52.018;5.576;2023-04-15T12:48:27;22.30;44.80
67820;DHT22;54618;52.018;5.576;2023-04-15T12:50:52;22.30;44.70
67820;DHT22;54618;52.018;5.576;2023-04-15T12:53:19;22.20;44.70
67820;DHT22;54618;52.018;5.576;2023-04-15T12:55:45;22.20;44.90
67820;DHT22;54618;52.018;5.576;2023-04-15T12:58:11;22.20;44.90
67820;DHT22;54618;52.018;5.576;2023-04-15T13:00:36;22.20;44.90
67820;DHT22;54618;52.018;5.576;2023-04-15T13:03:03;22.20;44.80
67820;DHT22;54618;52.018;5.576;2023-04-15T13:05:28;22.20;44.90
67820;DHT22;54618;52.018;5.576;2023-04-15T13:07:54;22.10;44.90
67820;DHT22;54618;52.018;5.576;2023-04-15T13:10:19;22.20;45.00
67820;DHT22;54618;52.018;5.576;2023-04-15T13:12:48;22.30;45.00
67820;DHT22;54618;52.018;5.576;2023-04-15T13:15:14;22.30;44.90
67820;DHT22;54618;52.018;5.576;2023-04-15T13:17:43;22.20;44.90
67820;DHT22;54618;52.018;5.576;2023-04-15T13:20:09;22.20;45.00
67820;DHT22;54618;52.018;5.576;2023-04-15T13:22:35;22.20;45.00
67820;DHT22;54618;52.018;5.576;2023-04-15T13:25:00;22.30;45.00
67820;DHT22;54618;52.018;5.576;2023-04-15T13:27:26;22.20;45.00
67820;DHT22;54618;52.018;5.576;2023-04-15T13:29:53;22.20;45.10
67820;DHT22;54618;52.018;5.576;2023-04-15T13:32:18;22.20;45.10
67820;DHT22;54618;52.018;5.576;2023-04-15T13:34:44;22.20;45.10
67820;DHT22;54618;52.018;5.576;2023-04-15T13:37:10;22.20;45.00
67820;DHT22;54618;52.018;5.576;2023-04-15T13:39:36;22.10;45.00
67820;DHT22;54618;52.018;5.576;2023-04-15T13:42:01;22.10;45.10
67820;DHT22;54618;52.018;5.576;2023-04-15T13:44:28;22.10;45.10
67820;DHT22;54618;52.018;5.576;2023-04-15T13:46:53;22.20;45.00
67820;DHT22;54618;52.018;5.576;2023-04-15T13:49:19;22.20;45.10
67820;DHT22;54618;52.018;5.576;2023-04-15T13:51:44;22.10;45.10
67820;DHT22;54618;52.018;5.576;2023-04-15T13:54:10;22.10;45.10
67820;DHT22;54618;52.018;5.576;2023-04-15T13:56:36;22.10;45.10
67820;DHT22;54618;52.018;5.576;2023-04-15T13:59:01;22.20;45.00
67820;DHT22;54618;52.018;5.576;2023-04-15T14:01:28;22.10;45.00
67820;DHT22;54618;52.018;5.576;2023-04-15T14:03:54;22.10;45.10
67820;DHT22;54618;52.018;5.576;2023-04-15T14:06:19;22.10;45.10
67820;DHT22;54618;52.018;5.576;2023-04-15T14:08:45;22.10;45.00
67820;DHT22;54618;52.018;5.576;2023-04-15T14:11:11;22.00;45.00
67820;DHT22;54618;52.018;5.576;2023-04-15T14:13:36;22.00;45.20
67820;DHT22;54618;52.018;5.576;2023-04-15T14:16:02;22.00;45.20
67820;DHT22;54618;52.018;5.576;2023-04-15T14:18:28;22.00;45.20
67820;DHT22;54618;52.018;5.576;2023-04-15T14:20:54;22.00;45.20
67820;DHT22;54618;52.018;5.576;2023-04-15T14:23:20;21.90;45.10
67820;DHT22;54618;52.018;5.576;2023-04-15T14:25:46;21.90;45.20
67820;DHT22;54618;52.018;5.576;2023-04-15T14:28:11;21.90;45.30
67820;DHT22;54618;52.018;5.576;2023-04-15T14:30:37;21.90;45.30
67820;DHT22;54618;52.018;5.576;2023-04-15T14:33:02;21.90;45.30
67820;DHT22;54618;52.018;5.576;2023-04-15T14:35:28;21.90;45.30
67820;DHT22;54618;52.018;5.576;2023-04-15T14:37:54;21.80;45.30
67820;DHT22;54618;52.018;5.576;2023-04-15T14:40:20;21.80;45.30
67820;DHT22;54618;52.018;5.576;2023-04-15T14:42:46;21.80;45.30
67820;DHT22;54618;52.018;5.576;2023-04-15T14:45:11;21.70;45.40
67820;DHT22;54618;52.018;5.576;2023-04-15T14:47:37;21.70;45.50
67820;DHT22;54618;52.018;5.576;2023-04-15T14:50:03;21.70;45.50
67820;DHT22;54618;52.018;5.576;2023-04-15T14:52:30;21.80;45.50
67820;DHT22;54618;52.018;5.576;2023-04-15T14:54:57;21.70;45.50
67820;DHT22;54618;52.018;5.576;2023-04-15T14:57:23;21.70;45.50
67820;DHT22;54618;52.018;5.576;2023-04-15T14:59:48;21.70;45.50
67820;DHT22;54618;52.018;5.576;2023-04-15T15:02:14;21.60;45.50
67820;DHT22;54618;52.018;5.576;2023-04-15T15:04:40;21.60;45.70
67820;DHT22;54618;52.018;5.576;2023-04-15T15:07:05;21.70;45.80
67820;DHT22;54618;52.018;5.576;2023-04-15T15:09:31;21.70;45.70
67820;DHT22;54618;52.018;5.576;2023-04-15T15:11:56;21.70;45.60
67820;DHT22;54618;52.018;5.576;2023-04-15T15:14:22;21.70;46.20
67820;DHT22;54618;52.018;5.576;2023-04-15T15:16:47;21.80;45.60
67820;DHT22;54618;52.018;5.576;2023-04-15T15:19:13;21.80;45.50
67820;DHT22;54618;52.018;5.576;2023-04-15T15:21:39;21.80;45.60
67820;DHT22;54618;52.018;5.576;2023-04-15T15:24:04;21.80;45.50
67820;DHT22;54618;52.018;5.576;2023-04-15T15:26:30;21.80;45.50
67820;DHT22;54618;52.018;5.576;2023-04-15T15:28:56;21.80;45.60
67820;DHT22;54618;52.018;5.576;2023-04-15T15:31:21;21.90;45.60
67820;DHT22;54618;52.018;5.576;2023-04-15T15:33:47;21.80;45.60
67820;DHT22;54618;52.018;5.576;2023-04-15T15:36:12;21.80;45.90
67820;DHT22;54618;52.018;5.576;2023-04-15T15:38:39;21.90;46.00